createdAt,value
2022-09-18T00:01:37.526Z,1.27
2022-09-18T00:03:43.339Z,1.35
2022-09-18T00:05:48.045Z,1.05
2022-09-18T00:07:55.369Z,1.73
2022-09-18T00:10:00.052Z,1.33
2022-09-18T00:12:05.082Z,1.50
2022-09-18T00:14:14.024Z,1.40
2022-09-18T00:16:20.788Z,1.58
2022-09-18T00:18:25.537Z,1.15
2022-09-18T00:20:30.311Z,1.40
2022-09-18T00:22:35.875Z,1.58
2022-09-18T00:24:43.251Z,1.30
2022-09-18T00:26:48.997Z,1.00
2022-09-18T00:28:54.391Z,1.38
2022-09-18T00:33:04.217Z,1.42
2022-09-18T00:37:14.181Z,1.38
2022-09-18T00:39:19.106Z,1.20
2022-09-18T00:41:29.092Z,1.52
2022-09-18T00:43:36.469Z,1.30
2022-09-18T00:45:41.269Z,1.58
2022-09-18T00:47:51.199Z,1.40
2022-09-18T00:50:02.739Z,1.55
2022-09-18T00:52:08.646Z,1.27
2022-09-18T00:54:18.663Z,2.08
2022-09-18T00:56:26.727Z,1.20
2022-09-18T00:58:31.527Z,1.45
2022-09-18T01:00:36.576Z,1.20
2022-09-18T01:04:46.971Z,1.30
2022-09-18T01:06:56.713Z,1.50
2022-09-18T01:09:28.017Z,2.15
2022-09-18T01:11:44.792Z,1.70
2022-09-18T01:14:01.608Z,1.48
2022-09-18T01:16:16.910Z,1.60
2022-09-18T01:18:29.080Z,1.73
2022-09-18T01:20:49.390Z,1.85
2022-09-18T01:23:09.847Z,1.20
2022-09-18T01:25:21.054Z,1.92
2022-09-18T01:27:36.194Z,1.50
2022-09-18T01:29:53.683Z,1.70
2022-09-18T01:32:04.785Z,1.65
2022-09-18T01:34:15.987Z,1.70
2022-09-18T01:36:24.368Z,1.50
2022-09-18T01:38:36.081Z,1.23
2022-09-18T01:40:50.062Z,1.80
2022-09-18T01:43:11.714Z,1.70
2022-09-18T01:45:27.979Z,1.50
2022-09-18T01:47:41.067Z,1.85
2022-09-18T01:49:49.396Z,1.77
2022-09-18T01:51:59.486Z,2.00
2022-09-18T01:54:08.455Z,2.42
2022-09-18T01:56:19.544Z,1.65
2022-09-18T01:58:27.083Z,1.90
2022-09-18T02:00:35.300Z,2.08
2022-09-18T02:02:44.934Z,1.70
2022-09-18T02:04:55.482Z,2.20
2022-09-18T02:07:07.921Z,1.70
2022-09-18T02:09:14.388Z,1.90
2022-09-18T02:11:22.316Z,2.25
2022-09-18T02:13:31.762Z,1.58
2022-09-18T02:15:42.342Z,1.77
2022-09-18T02:17:56.526Z,1.42
2022-09-18T02:20:13.960Z,1.85
2022-09-18T02:22:24.512Z,2.13
2022-09-18T02:24:35.436Z,2.28
2022-09-18T02:26:43.538Z,2.10
2022-09-18T02:28:49.963Z,1.90
2022-09-18T02:30:58.548Z,1.75
2022-09-18T02:33:03.446Z,2.25
2022-09-18T02:35:11.729Z,2.10
2022-09-18T02:37:30.656Z,1.73
2022-09-18T02:39:54.683Z,2.28
2022-09-18T02:42:09.351Z,2.08
2022-09-18T02:44:21.718Z,1.95
2022-09-18T02:46:35.640Z,1.85
2022-09-18T02:49:01.880Z,1.63
2022-09-18T02:51:15.218Z,2.08
2022-09-18T02:53:26.351Z,1.77
2022-09-18T02:55:40.300Z,2.00
2022-09-18T02:57:49.820Z,2.35
2022-09-18T02:59:58.501Z,1.88
2022-09-18T03:02:09.439Z,2.00
2022-09-18T03:04:22.545Z,1.75
2022-09-18T03:06:35.481Z,2.00
2022-09-18T03:08:40.233Z,3.00
2022-09-18T03:10:47.578Z,1.92
2022-09-18T03:12:53.227Z,2.42
2022-09-18T03:14:58.192Z,2.05
2022-09-18T03:17:03.011Z,2.15
2022-09-18T03:19:14.353Z,1.73
2022-09-18T03:21:22.044Z,1.85
2022-09-18T03:23:28.248Z,2.30
2022-09-18T03:25:44.485Z,1.90
2022-09-18T03:27:50.698Z,2.25
2022-09-18T03:30:03.606Z,2.17
2022-09-18T03:32:10.829Z,2.42
2022-09-18T03:34:30.068Z,1.83
2022-09-18T03:36:34.794Z,2.10
2022-09-18T03:38:41.085Z,2.20
2022-09-18T03:40:47.903Z,2.45
2022-09-18T03:42:54.219Z,2.20
2022-09-18T03:45:00.270Z,1.85
2022-09-18T03:47:05.329Z,2.00
2022-09-18T03:49:10.159Z,2.13
2022-09-18T03:51:20.106Z,1.73
2022-09-18T03:53:24.967Z,2.35
2022-09-18T03:55:38.950Z,1.95
2022-09-18T03:58:02.130Z,1.80
2022-09-18T04:00:18.115Z,1.73
2022-09-18T04:02:27.920Z,1.80
2022-09-18T04:04:51.435Z,1.95
2022-09-18T04:07:25.000Z,1.35
2022-09-18T04:09:52.482Z,1.50
2022-09-18T04:11:57.252Z,1.98
2022-09-18T04:14:02.059Z,2.15
2022-09-18T04:16:07.174Z,1.70
2022-09-18T04:18:12.189Z,2.45
2022-09-18T04:20:17.168Z,1.85
2022-09-18T04:22:24.695Z,1.70
2022-09-18T04:24:30.696Z,1.90
2022-09-18T04:26:39.476Z,1.63
2022-09-18T04:30:49.799Z,1.75
2022-09-18T04:32:54.539Z,1.80
2022-09-18T04:35:02.014Z,1.80
2022-09-18T04:37:10.380Z,1.98
2022-09-18T04:39:19.108Z,1.83
2022-09-18T04:41:23.918Z,1.45
2022-09-18T04:43:30.888Z,1.65
2022-09-18T04:45:36.962Z,1.70
2022-09-18T04:47:42.011Z,2.00
2022-09-18T04:49:46.964Z,1.83
2022-09-18T04:51:52.084Z,1.73
2022-09-18T04:53:56.819Z,1.77
2022-09-18T04:58:12.841Z,1.98
2022-09-18T05:00:19.955Z,1.38
2022-09-18T05:02:26.109Z,1.40
2022-09-18T05:04:31.416Z,1.60
2022-09-18T05:06:44.048Z,1.63
2022-09-18T05:08:48.846Z,1.35
2022-09-18T05:10:53.690Z,1.63
2022-09-18T05:13:01.218Z,1.73
2022-09-18T05:15:07.601Z,1.52
2022-09-18T05:17:12.419Z,1.42
2022-09-18T05:19:20.880Z,1.60
2022-09-18T05:23:31.748Z,1.43
2022-09-18T05:25:36.885Z,1.52
2022-09-18T05:27:41.737Z,1.98
2022-09-18T05:29:50.054Z,1.70
2022-09-18T05:31:59.282Z,1.50
2022-09-18T05:34:05.271Z,1.55
2022-09-18T05:36:10.640Z,1.80
2022-09-18T05:38:15.523Z,1.40
2022-09-18T05:40:23.857Z,1.45
2022-09-18T05:42:28.780Z,2.03
2022-09-18T05:44:35.600Z,2.10
2022-09-18T05:46:50.118Z,1.75
2022-09-18T05:48:55.520Z,1.52
2022-09-18T05:51:00.312Z,1.52
2022-09-18T05:53:08.418Z,1.80
2022-09-18T05:55:32.310Z,1.92
2022-09-18T05:57:37.627Z,1.75
2022-09-18T05:59:42.442Z,1.95
2022-09-18T06:01:50.815Z,1.67
2022-09-18T06:04:21.652Z,1.90
2022-09-18T06:06:34.155Z,1.65
2022-09-18T06:10:44.014Z,1.60
2022-09-18T06:12:49.029Z,1.40
2022-09-18T06:14:53.791Z,2.22
2022-09-18T06:17:01.291Z,1.95
2022-09-18T06:19:06.384Z,1.40
2022-09-18T06:21:14.933Z,1.63
2022-09-18T06:23:20.755Z,1.70
2022-09-18T06:25:36.492Z,1.75
2022-09-18T06:27:41.531Z,1.70
2022-09-18T06:29:46.722Z,2.28
2022-09-18T06:32:09.069Z,1.70
2022-09-18T06:34:15.765Z,2.08
2022-09-18T06:36:22.324Z,1.90
2022-09-18T06:39:02.575Z,1.95
2022-09-18T06:41:08.996Z,1.90
2022-09-18T06:43:25.274Z,1.80
2022-09-18T06:46:02.603Z,1.58
2022-09-18T06:48:17.810Z,1.65
2022-09-18T06:50:23.575Z,1.30
2022-09-18T06:52:28.350Z,1.55
2022-09-18T06:54:35.653Z,1.60
2022-09-18T06:56:41.178Z,1.42
2022-09-18T06:58:48.434Z,1.63
2022-09-18T07:00:57.396Z,1.42
2022-09-18T07:03:07.439Z,1.75
2022-09-18T07:05:45.543Z,1.60
2022-09-18T07:08:00.286Z,1.73
2022-09-18T07:10:09.504Z,1.73
2022-09-18T07:12:18.981Z,1.30
2022-09-18T07:14:28.895Z,1.63
2022-09-18T07:16:40.674Z,1.77
2022-09-18T07:18:46.773Z,1.85
2022-09-18T07:20:54.417Z,1.35
2022-09-18T07:23:09.810Z,1.50
2022-09-18T07:25:21.153Z,1.30
2022-09-18T07:27:26.186Z,1.40
2022-09-18T07:29:32.839Z,1.58
2022-09-18T07:31:38.649Z,1.02
2022-09-18T07:33:46.076Z,1.30
2022-09-18T07:36:02.605Z,1.73
2022-09-18T07:38:09.867Z,1.35
2022-09-18T07:40:36.072Z,1.48
2022-09-18T07:42:44.272Z,1.70
2022-09-18T07:44:49.412Z,1.35
2022-09-18T07:46:55.451Z,1.58
2022-09-18T07:49:01.599Z,1.30
2022-09-18T07:51:10.563Z,1.20
2022-09-18T07:53:17.696Z,1.30
2022-09-18T07:55:27.059Z,1.50
2022-09-18T07:57:32.599Z,1.10
2022-09-18T08:00:07.867Z,1.42
2022-09-18T08:02:20.070Z,1.33
2022-09-18T08:04:25.135Z,1.58
2022-09-18T08:06:41.854Z,1.25
2022-09-18T08:09:00.702Z,1.50
2022-09-18T08:11:13.784Z,1.38
2022-09-18T08:13:23.895Z,1.55
2022-09-18T08:15:47.257Z,1.77
2022-09-18T08:18:18.278Z,1.63
2022-09-18T08:20:52.309Z,1.10
2022-09-18T08:23:10.033Z,1.30
2022-09-18T08:25:17.756Z,1.10
2022-09-18T08:27:26.101Z,1.60
2022-09-18T08:31:45.134Z,1.40
2022-09-18T08:33:49.928Z,1.05
2022-09-18T08:35:55.028Z,1.27
2022-09-18T08:38:12.110Z,1.25
2022-09-18T08:40:56.385Z,1.60
2022-09-18T08:43:11.530Z,1.50
2022-09-18T08:45:36.705Z,1.10
2022-09-18T08:47:48.180Z,1.63
2022-09-18T08:49:58.838Z,1.50
2022-09-18T08:52:09.350Z,1.70
2022-09-18T08:54:36.504Z,1.60
2022-09-18T08:56:50.671Z,1.40
2022-09-18T08:59:13.547Z,1.45
2022-09-18T09:01:21.316Z,1.52
2022-09-18T09:03:53.961Z,1.20
2022-09-18T09:06:01.906Z,1.70
2022-09-18T09:08:24.816Z,1.75
2022-09-18T09:10:43.286Z,1.27
2022-09-18T09:12:56.005Z,1.13
2022-09-18T09:15:31.715Z,1.30
2022-09-18T09:17:43.238Z,1.20
2022-09-18T09:19:56.049Z,1.20
2022-09-18T09:22:09.523Z,1.23
2022-09-18T09:24:26.844Z,1.23
2022-09-18T09:27:19.496Z,1.13
2022-09-18T09:29:46.787Z,1.23
2022-09-18T09:32:25.980Z,1.30
2022-09-18T09:34:58.321Z,0.80
2022-09-18T09:37:31.712Z,1.20
2022-09-18T09:39:43.348Z,1.10
2022-09-18T09:41:54.093Z,1.25
2022-09-18T09:44:09.686Z,1.20
2022-09-18T09:46:21.619Z,1.15
2022-09-18T09:48:33.079Z,1.52
2022-09-18T09:50:53.111Z,1.20
2022-09-18T09:53:03.879Z,1.02
2022-09-18T09:55:21.445Z,1.40
2022-09-18T09:57:35.810Z,1.33
2022-09-18T09:59:52.805Z,0.93
2022-09-18T10:02:12.749Z,1.52
2022-09-18T10:04:31.858Z,1.13
2022-09-18T10:06:45.603Z,1.35
2022-09-18T10:08:59.673Z,1.30
2022-09-18T10:11:11.285Z,1.13
2022-09-18T10:13:21.002Z,1.05
2022-09-18T10:15:36.749Z,1.30
2022-09-18T10:17:44.855Z,1.35
2022-09-18T10:19:51.009Z,1.08
2022-09-18T10:21:58.083Z,1.23
2022-09-18T10:24:15.653Z,1.08
2022-09-18T10:26:26.285Z,1.33
2022-09-18T10:28:32.159Z,1.20
2022-09-18T10:30:55.526Z,1.25
2022-09-18T10:33:00.355Z,1.10
2022-09-18T10:35:41.739Z,1.50
2022-09-18T10:37:47.040Z,1.30
2022-09-18T10:40:03.999Z,1.85
2022-09-18T10:42:19.107Z,1.17
2022-09-18T10:44:29.353Z,1.20
2022-09-18T10:46:52.386Z,1.20
2022-09-18T10:48:57.475Z,1.20
2022-09-18T10:51:04.530Z,1.42
2022-09-18T10:53:30.472Z,1.50
2022-09-18T10:55:55.769Z,1.48
2022-09-18T10:58:08.355Z,1.33
2022-09-18T11:00:37.186Z,1.15
2022-09-18T11:02:50.752Z,1.40
2022-09-18T11:04:56.082Z,1.25
2022-09-18T11:07:08.015Z,1.10
2022-09-18T11:09:14.276Z,1.20
2022-09-18T11:11:29.319Z,1.17
2022-09-18T11:13:46.049Z,1.00
2022-09-18T11:15:59.213Z,1.52
2022-09-18T11:18:15.921Z,1.52
2022-09-18T11:20:26.787Z,1.13
2022-09-18T11:22:42.828Z,0.90
2022-09-18T11:25:10.060Z,1.15
2022-09-18T11:27:23.152Z,1.13
2022-09-18T11:29:34.409Z,1.23
2022-09-18T11:31:45.533Z,1.25
2022-09-18T11:34:05.666Z,1.10
2022-09-18T11:36:16.458Z,1.00
2022-09-18T11:38:21.707Z,0.88
2022-09-18T11:40:31.472Z,1.15
2022-09-18T11:42:45.073Z,0.95
2022-09-18T11:44:51.100Z,1.20
2022-09-18T11:47:14.139Z,1.48
2022-09-18T11:49:26.745Z,1.48
2022-09-18T11:51:37.692Z,1.38
2022-09-18T11:53:47.428Z,1.08
2022-09-18T11:55:59.594Z,1.45
2022-09-18T11:58:08.092Z,1.23
2022-09-18T12:00:19.955Z,1.27
2022-09-18T12:02:38.429Z,1.05
2022-09-18T12:04:52.185Z,1.00
2022-09-18T12:07:04.009Z,1.25
2022-09-18T12:09:16.418Z,0.90
2022-09-18T12:11:28.096Z,1.15
2022-09-18T12:13:45.680Z,0.98
2022-09-18T12:15:55.922Z,1.20
2022-09-18T12:18:06.990Z,1.42
2022-09-18T12:20:19.257Z,1.20
2022-09-18T12:22:30.328Z,1.05
2022-09-18T12:24:36.327Z,1.13
2022-09-18T12:26:48.665Z,1.05
2022-09-18T12:29:07.954Z,1.15
2022-09-18T12:31:18.776Z,0.90
2022-09-18T12:33:34.452Z,1.08
2022-09-18T12:38:08.606Z,1.88
2022-09-18T12:40:27.110Z,1.98
2022-09-18T12:42:42.728Z,2.15
2022-09-18T12:45:23.308Z,1.02
2022-09-18T12:47:51.019Z,1.33
2022-09-18T12:50:17.126Z,1.50
2022-09-18T12:52:50.804Z,1.42
2022-09-18T12:55:38.019Z,1.00
2022-09-18T12:57:58.982Z,1.23
2022-09-18T13:00:30.033Z,1.40
2022-09-18T13:03:04.451Z,1.30
2022-09-18T13:05:16.685Z,1.27
2022-09-18T13:07:29.190Z,1.40
2022-09-18T13:09:44.803Z,1.52
2022-09-18T13:14:01.722Z,1.30
2022-09-18T13:16:11.670Z,1.13
2022-09-18T13:18:29.150Z,1.23
2022-09-18T13:20:37.194Z,1.67
2022-09-18T13:22:50.006Z,1.08
2022-09-18T13:24:58.792Z,1.40
2022-09-18T13:27:06.565Z,1.00
2022-09-18T13:29:41.153Z,1.13
2022-09-18T13:31:46.073Z,1.30
2022-09-18T13:33:57.764Z,1.27
2022-09-18T13:36:02.767Z,1.10
2022-09-18T13:38:20.416Z,1.38
2022-09-18T13:40:35.566Z,1.20
2022-09-18T13:42:42.850Z,1.00
2022-09-18T13:44:52.985Z,1.38
2022-09-18T13:47:00.138Z,1.48
2022-09-18T13:49:17.639Z,1.55
2022-09-18T13:51:30.662Z,0.95
2022-09-18T13:53:42.655Z,1.60
2022-09-18T13:55:56.150Z,1.30
2022-09-18T13:58:41.007Z,1.55
2022-09-18T14:00:46.020Z,1.45
2022-09-18T14:02:52.103Z,1.35
2022-09-18T14:05:22.428Z,1.63
2022-09-18T14:07:47.042Z,1.90
2022-09-18T14:09:59.805Z,1.30
2022-09-18T14:12:14.870Z,1.27
2022-09-18T14:14:24.124Z,1.60
2022-09-18T14:16:40.786Z,1.30
2022-09-18T14:19:24.446Z,1.48
2022-09-18T14:21:32.777Z,1.67
2022-09-18T14:24:13.285Z,1.48
2022-09-18T14:26:47.882Z,1.10
2022-09-18T14:28:55.502Z,1.30
2022-09-18T14:31:15.753Z,1.50
2022-09-18T14:33:23.903Z,1.35
2022-09-18T14:35:37.848Z,1.15
2022-09-18T14:37:42.769Z,1.60
2022-09-18T14:39:48.038Z,1.45
2022-09-18T14:41:57.473Z,2.00
2022-09-18T14:44:07.191Z,1.23
2022-09-18T14:46:21.189Z,1.67
2022-09-18T14:48:31.212Z,1.50
2022-09-18T14:50:39.041Z,1.90
2022-09-18T14:52:45.829Z,2.17
2022-09-18T14:54:51.250Z,1.95
2022-09-18T14:57:01.726Z,2.38
2022-09-18T14:59:11.148Z,2.60
2022-09-18T15:01:19.835Z,2.20
2022-09-18T15:03:32.359Z,2.00
2022-09-18T15:05:38.000Z,2.17
2022-09-18T15:07:50.027Z,1.75
2022-09-18T15:09:57.599Z,1.80
2022-09-18T15:12:03.651Z,2.55
2022-09-18T15:14:23.102Z,3.30
2022-09-18T15:16:30.016Z,3.17
2022-09-18T15:18:42.967Z,2.97
2022-09-18T15:20:51.401Z,2.05
2022-09-18T15:22:56.906Z,2.63
2022-09-18T15:25:02.151Z,2.53
2022-09-18T15:27:09.771Z,2.80
2022-09-18T15:29:23.057Z,3.25
2022-09-18T15:31:32.835Z,2.97
2022-09-18T15:33:39.730Z,2.15
2022-09-18T15:35:45.366Z,2.17
2022-09-18T15:37:54.493Z,1.85
2022-09-18T15:40:05.724Z,2.42
2022-09-18T15:42:26.663Z,2.15
2022-09-18T15:45:04.066Z,2.80
2022-09-18T15:47:35.117Z,1.92
2022-09-18T15:49:39.952Z,2.35
2022-09-18T15:51:44.696Z,1.95
2022-09-18T15:54:09.902Z,2.40
2022-09-18T15:56:22.969Z,2.30
2022-09-18T15:58:43.545Z,2.65
2022-09-18T16:00:58.755Z,1.90
2022-09-18T16:03:09.706Z,2.63
2022-09-18T16:05:17.679Z,2.00
2022-09-18T16:07:24.341Z,1.83
2022-09-18T16:09:43.938Z,4.32
2022-09-18T16:11:49.422Z,3.47
2022-09-18T16:13:56.261Z,3.00
2022-09-18T16:16:17.632Z,3.10
2022-09-18T16:18:29.208Z,2.97
2022-09-18T16:20:41.763Z,3.72
2022-09-18T16:22:46.602Z,3.83
2022-09-18T16:24:51.672Z,3.63
2022-09-18T16:26:56.650Z,3.50
2022-09-18T16:29:03.974Z,4.18
2022-09-18T16:31:08.816Z,4.20
2022-09-18T16:33:20.764Z,3.28
2022-09-18T16:35:28.089Z,2.20
2022-09-18T16:37:32.853Z,2.67
2022-09-18T16:39:38.131Z,2.60
2022-09-18T16:43:47.376Z,2.75
2022-09-18T16:45:52.256Z,2.60
2022-09-18T16:48:00.781Z,2.72
2022-09-18T16:50:06.272Z,2.38
2022-09-18T16:52:15.641Z,2.70
2022-09-18T16:54:20.498Z,2.50
2022-09-18T16:56:30.523Z,2.40
2022-09-18T16:58:38.998Z,2.10
2022-09-18T17:00:43.844Z,1.95
2022-09-18T17:02:49.164Z,2.38
2022-09-18T17:06:58.994Z,2.90
2022-09-18T17:09:07.710Z,2.58
2022-09-18T17:11:12.953Z,2.83
2022-09-18T17:15:22.428Z,2.80
2022-09-18T17:17:27.318Z,6.03
2022-09-18T17:19:32.120Z,3.60
2022-09-18T17:21:36.855Z,2.33
2022-09-18T17:23:41.685Z,2.53
2022-09-18T17:25:49.096Z,2.35
2022-09-18T17:27:54.342Z,2.55
2022-09-18T17:32:06.227Z,2.20
2022-09-18T17:34:11.126Z,1.90
2022-09-18T17:36:18.185Z,2.30
2022-09-18T17:38:22.958Z,2.50
2022-09-18T17:40:27.810Z,3.08
2022-09-18T17:42:38.073Z,1.80
2022-09-18T17:44:43.177Z,2.20
2022-09-18T17:46:51.618Z,2.38
2022-09-18T17:48:57.022Z,2.33
2022-09-18T17:53:08.950Z,1.75
2022-09-18T17:55:13.810Z,2.17
2022-09-18T17:57:18.591Z,1.60
2022-09-18T17:59:26.879Z,1.83
2022-09-18T18:01:32.570Z,1.98
2022-09-18T18:03:37.427Z,1.90
2022-09-18T18:05:42.799Z,2.13
2022-09-18T18:09:52.061Z,1.95
2022-09-18T18:11:57.248Z,2.50
2022-09-18T18:16:11.073Z,2.05
2022-09-18T18:18:15.882Z,1.90
2022-09-18T18:20:21.370Z,2.40
2022-09-18T18:22:26.193Z,2.05
2022-09-18T18:24:31.134Z,2.88
2022-09-18T18:26:35.983Z,3.10
2022-09-18T18:28:42.795Z,2.50
2022-09-18T18:30:47.743Z,3.38
2022-09-18T18:32:56.173Z,4.85
2022-09-18T18:35:00.921Z,4.75
2022-09-18T18:37:06.065Z,3.92
2022-09-18T18:39:13.010Z,3.40
2022-09-18T18:41:19.194Z,3.78
2022-09-18T18:43:24.561Z,1.88
2022-09-18T18:45:29.730Z,1.90
2022-09-18T18:49:43.405Z,2.33
2022-09-18T18:51:51.957Z,2.22
2022-09-18T18:53:57.361Z,2.03
2022-09-18T18:56:05.923Z,2.35
2022-09-18T18:58:10.725Z,1.80
2022-09-18T19:00:16.181Z,2.25
2022-09-18T19:02:20.976Z,1.77
2022-09-18T19:04:28.898Z,1.67
2022-09-18T19:06:36.965Z,2.30
2022-09-18T19:08:42.127Z,1.70
2022-09-18T19:10:47.160Z,2.08
2022-09-18T19:12:57.315Z,1.92
2022-09-18T19:15:02.032Z,1.70
2022-09-18T19:17:10.042Z,2.25
2022-09-18T19:19:15.878Z,2.65
2022-09-18T19:21:20.729Z,2.05
2022-09-18T19:23:31.265Z,2.20
2022-09-18T19:25:37.470Z,2.38
2022-09-18T19:27:42.335Z,1.85
2022-09-18T19:29:47.165Z,2.17
2022-09-18T19:31:53.163Z,2.35
2022-09-18T19:33:58.506Z,2.05
2022-09-18T19:36:07.722Z,2.40
2022-09-18T19:38:15.773Z,2.47
2022-09-18T19:40:23.196Z,2.30
2022-09-18T19:42:31.229Z,2.30
2022-09-18T19:44:38.772Z,2.00
2022-09-18T19:46:43.763Z,2.20
2022-09-18T19:48:48.759Z,1.92
2022-09-18T19:50:54.006Z,2.67
2022-09-18T19:52:58.783Z,2.53
2022-09-18T19:55:03.617Z,2.50
2022-09-18T19:57:11.802Z,2.50
2022-09-18T19:59:17.079Z,2.20
2022-09-18T20:01:22.532Z,2.45
2022-09-18T20:03:27.398Z,2.33
2022-09-18T20:05:33.445Z,4.38
2022-09-18T20:07:38.902Z,3.75
2022-09-18T20:09:43.644Z,2.50
2022-09-18T20:11:48.571Z,2.97
2022-09-18T20:13:56.142Z,2.97
2022-09-18T20:16:05.744Z,3.78
2022-09-18T20:18:10.733Z,5.43
2022-09-18T20:20:16.649Z,3.03
2022-09-18T20:22:21.551Z,2.60
2022-09-18T20:24:26.370Z,2.13
2022-09-18T20:26:31.687Z,2.40
2022-09-18T20:28:37.384Z,1.50
2022-09-18T20:30:44.819Z,1.90
2022-09-18T20:32:49.708Z,1.58
2022-09-18T20:34:54.957Z,1.63
2022-09-18T20:39:04.198Z,1.40
2022-09-18T20:41:13.595Z,1.20
2022-09-18T20:43:18.329Z,1.20
2022-09-18T20:45:23.170Z,1.17
2022-09-18T20:47:32.226Z,1.10
2022-09-18T20:49:37.909Z,1.10
2022-09-18T20:51:42.656Z,1.23
2022-09-18T20:53:47.683Z,0.95
2022-09-18T20:55:52.478Z,1.40
2022-09-18T20:58:00.342Z,6.45
2022-09-18T21:00:09.197Z,3.60
2022-09-18T21:02:14.093Z,1.50
2022-09-18T21:04:23.340Z,1.20
2022-09-18T21:06:31.732Z,1.08
2022-09-18T21:08:37.862Z,3.67
2022-09-18T21:10:47.030Z,1.50
2022-09-18T21:12:51.948Z,0.80
2022-09-18T21:14:56.979Z,0.95
2022-09-18T21:17:01.923Z,1.00
2022-09-18T21:21:17.965Z,0.60
2022-09-18T21:23:35.583Z,0.95
2022-09-18T21:25:40.611Z,0.90
2022-09-18T21:27:45.400Z,0.90
2022-09-18T21:29:50.233Z,1.00
2022-09-18T21:31:56.689Z,0.90
2022-09-18T21:34:03.919Z,1.10
2022-09-18T21:36:09.068Z,1.20
2022-09-18T21:38:17.473Z,1.65
2022-09-18T21:40:22.348Z,1.40
2022-09-18T21:42:27.239Z,1.15
2022-09-18T21:44:38.523Z,1.13
2022-09-18T21:46:44.824Z,1.50
2022-09-18T21:48:53.041Z,1.25
2022-09-18T21:50:57.958Z,1.40
2022-09-18T21:53:02.717Z,1.48
2022-09-18T21:55:11.204Z,1.52
2022-09-18T21:57:16.390Z,1.10
2022-09-18T21:59:22.307Z,1.08
2022-09-18T22:01:32.173Z,1.13
2022-09-18T22:03:37.192Z,1.15
2022-09-18T22:05:41.979Z,1.30
2022-09-18T22:07:47.430Z,1.30
2022-09-18T22:09:53.497Z,1.20
2022-09-18T22:12:01.847Z,1.10
2022-09-18T22:14:09.369Z,1.10
2022-09-18T22:16:16.454Z,0.95
2022-09-18T22:18:21.277Z,2.10
2022-09-18T22:20:26.033Z,1.48
2022-09-18T22:22:30.880Z,1.50
2022-09-18T22:24:35.777Z,1.00
2022-09-18T22:26:43.086Z,1.20
2022-09-18T22:28:53.776Z,1.00
2022-09-18T22:30:58.623Z,0.85
2022-09-18T22:33:04.754Z,1.10
2022-09-18T22:35:11.170Z,0.73
2022-09-18T22:37:15.961Z,0.55
2022-09-18T22:39:22.581Z,0.98
2022-09-18T22:41:27.773Z,0.60
2022-09-18T22:43:34.024Z,0.60
2022-09-18T22:45:42.357Z,1.73
2022-09-18T22:47:47.153Z,0.88
2022-09-18T22:49:52.108Z,0.95
2022-09-18T22:51:57.360Z,1.00
2022-09-18T22:56:09.578Z,0.98
2022-09-18T22:58:15.295Z,0.77
2022-09-18T23:00:20.313Z,0.90
2022-09-18T23:02:27.648Z,0.90
2022-09-18T23:04:36.722Z,0.60
2022-09-18T23:06:42.838Z,0.82
2022-09-18T23:08:48.967Z,0.68
2022-09-18T23:10:55.077Z,0.68
2022-09-18T23:12:59.848Z,0.55
2022-09-18T23:15:04.614Z,0.73
2022-09-18T23:17:09.979Z,0.75
2022-09-18T23:21:26.955Z,0.63
2022-09-18T23:23:33.461Z,0.52
2022-09-18T23:25:38.802Z,0.70
2022-09-18T23:29:48.153Z,0.60
2022-09-18T23:31:57.418Z,0.93
2022-09-18T23:34:05.044Z,0.60
2022-09-18T23:36:15.521Z,0.70
2022-09-18T23:38:20.285Z,0.70
2022-09-18T23:40:25.200Z,0.55
2022-09-18T23:42:30.183Z,0.55
2022-09-18T23:44:35.142Z,0.75
2022-09-18T23:46:40.424Z,0.60
2022-09-18T23:48:47.536Z,0.98
2022-09-18T23:50:53.503Z,0.52
2022-09-18T23:53:00.846Z,0.50
2022-09-18T23:55:05.716Z,0.60
2022-09-18T23:57:10.503Z,0.70
2022-09-18T23:59:19.570Z,0.50
